createdAt,value
2019-04-22T00:02:20.827Z,6.67
2019-04-22T00:05:05.760Z,6.80
2019-04-22T00:07:50.028Z,6.83
2019-04-22T00:10:19.359Z,6.60
2019-04-22T00:12:54.609Z,7.10
2019-04-22T00:15:20.197Z,6.17
2019-04-22T00:18:03.753Z,6.60
2019-04-22T00:20:30.834Z,6.90
2019-04-22T00:22:59.454Z,7.17
2019-04-22T00:25:34.397Z,6.97
2019-04-22T00:28:11.210Z,7.03
2019-04-22T00:30:34.186Z,8.00
2019-04-22T00:33:18.574Z,7.67
2019-04-22T00:35:49.344Z,8.17
2019-04-22T00:38:23.598Z,7.53
2019-04-22T00:40:54.921Z,7.17
2019-04-22T00:43:25.897Z,7.30
2019-04-22T00:45:56.260Z,7.40
2019-04-22T00:48:37.979Z,8.30
2019-04-22T00:51:08.946Z,8.40
2019-04-22T00:53:34.233Z,8.27
2019-04-22T00:56:07.425Z,8.00
2019-04-22T00:58:37.852Z,8.30
2019-04-22T01:01:14.305Z,9.87
2019-04-22T01:06:17.296Z,8.40
2019-04-22T01:08:53.621Z,8.77
2019-04-22T01:11:27.627Z,8.70
2019-04-22T01:13:49.578Z,10.37
2019-04-22T01:16:26.332Z,9.33
2019-04-22T01:18:55.865Z,9.87
2019-04-22T01:21:28.994Z,9.37
2019-04-22T01:23:57.557Z,10.20
2019-04-22T01:26:24.297Z,9.97
2019-04-22T01:28:53.504Z,10.37
2019-04-22T01:31:18.153Z,9.93
2019-04-22T01:33:53.999Z,10.63
2019-04-22T01:36:35.295Z,10.53
2019-04-22T01:39:13.465Z,10.17
2019-04-22T01:41:55.291Z,10.73
2019-04-22T01:44:22.628Z,10.60
2019-04-22T01:46:50.710Z,11.17
2019-04-22T01:49:27.303Z,11.23
2019-04-22T01:52:14.071Z,12.50
2019-04-22T01:54:35.424Z,12.00
2019-04-22T01:56:57.140Z,12.83
2019-04-22T01:59:27.185Z,11.47
2019-04-22T02:02:14.498Z,13.70
2019-04-22T02:07:16.757Z,13.60
2019-04-22T02:09:47.488Z,14.77
2019-04-22T02:12:19.923Z,14.97
2019-04-22T02:14:51.082Z,14.07
2019-04-22T02:17:25.244Z,13.97
2019-04-22T02:19:59.085Z,14.27
2019-04-22T02:22:41.637Z,14.27
2019-04-22T02:25:01.499Z,12.53
2019-04-22T02:27:39.025Z,12.47
2019-04-22T02:30:30.605Z,13.03
2019-04-22T02:33:08.143Z,12.20
2019-04-22T02:35:31.221Z,13.27
2019-04-22T02:37:46.001Z,12.80
2019-04-22T02:40:17.299Z,12.57
2019-04-22T02:42:55.864Z,12.30
2019-04-22T02:45:26.852Z,11.83
2019-04-22T02:47:59.117Z,11.33
2019-04-22T02:50:28.534Z,12.47
2019-04-22T02:53:00.862Z,11.90
2019-04-22T02:55:45.936Z,12.90
2019-04-22T02:58:03.600Z,11.77
2019-04-22T03:00:46.698Z,12.07
2019-04-22T03:03:20.541Z,12.50
2019-04-22T03:10:56.531Z,11.03
2019-04-22T03:15:59.625Z,11.23
2019-04-22T03:18:42.134Z,11.60
2019-04-22T03:21:07.709Z,11.00
2019-04-22T03:26:14.051Z,11.73
2019-04-22T03:28:43.203Z,12.20
2019-04-22T03:31:54.847Z,11.40
2019-04-22T03:34:42.190Z,10.17
2019-04-22T03:39:19.444Z,9.10
2019-04-22T03:42:05.712Z,9.00
2019-04-22T03:46:41.959Z,9.97
2019-04-22T03:49:22.633Z,9.43
2019-04-22T03:51:53.553Z,8.90
2019-04-22T03:54:25.703Z,8.50
2019-04-22T04:04:35.461Z,8.73
2019-04-22T04:07:00.980Z,8.67
2019-04-22T04:09:24.008Z,8.23
2019-04-22T04:14:26.242Z,8.07
2019-04-22T04:17:08.757Z,8.43
2019-04-22T04:19:34.163Z,8.17
2019-04-22T04:22:14.383Z,8.43
2019-04-22T04:24:44.585Z,8.37
2019-04-22T04:29:45.186Z,7.30
2019-04-22T04:32:25.146Z,7.77
2019-04-22T04:39:59.809Z,9.23
2019-04-22T04:42:23.091Z,8.70
2019-04-22T04:49:54.408Z,9.10
2019-04-22T04:52:39.720Z,9.03
2019-04-22T04:54:59.063Z,7.33
2019-04-22T05:02:37.897Z,8.10
2019-04-22T05:07:36.177Z,8.13
2019-04-22T05:10:09.644Z,8.60
2019-04-22T05:15:15.358Z,7.07
2019-04-22T05:20:29.554Z,7.27
2019-04-22T05:22:39.788Z,7.20
2019-04-22T05:25:18.985Z,6.57
2019-04-22T05:35:20.582Z,7.43
2019-04-22T05:37:56.300Z,7.27
2019-04-22T05:40:24.484Z,7.10
2019-04-22T05:42:56.307Z,6.57
2019-04-22T05:45:28.280Z,7.30
2019-04-22T05:47:56.293Z,7.67
2019-04-22T05:50:31.995Z,7.53
2019-04-22T05:53:00.545Z,6.50
2019-04-22T05:55:43.309Z,6.20
2019-04-22T05:58:10.804Z,7.47
2019-04-22T06:01:12.713Z,6.50
2019-04-22T06:03:20.792Z,6.70
2019-04-22T06:05:53.794Z,5.93
2019-04-22T06:08:16.912Z,6.13
2019-04-22T06:10:55.792Z,6.30
2019-04-22T06:13:18.150Z,6.83
2019-04-22T06:15:55.742Z,6.90
2019-04-22T06:21:08.498Z,6.10
2019-04-22T06:23:40.394Z,7.30
2019-04-22T06:26:19.402Z,5.97
2019-04-22T06:28:51.846Z,5.87
2019-04-22T06:31:26.636Z,6.30
2019-04-22T06:34:15.727Z,6.20
2019-04-22T06:36:29.301Z,7.20
2019-04-22T06:38:59.150Z,5.83
2019-04-22T06:41:35.109Z,5.57
2019-04-22T06:44:10.942Z,5.73
2019-04-22T06:46:39.939Z,5.37
2019-04-22T06:49:12.862Z,5.80
2019-04-22T06:51:45.084Z,6.80
2019-04-22T06:54:14.778Z,5.73
2019-04-22T06:56:48.531Z,6.70
2019-04-22T06:59:22.465Z,6.47
2019-04-22T07:01:48.623Z,6.23
2019-04-22T07:04:22.248Z,5.77
2019-04-22T07:06:56.475Z,6.40
2019-04-22T07:11:58.806Z,5.83
2019-04-22T07:14:33.077Z,6.13
2019-04-22T07:17:02.159Z,5.57
2019-04-22T07:19:33.533Z,5.20
2019-04-22T07:22:11.113Z,5.27
2019-04-22T07:24:53.918Z,4.93
2019-04-22T07:27:11.602Z,5.80
2019-04-22T07:29:46.979Z,5.20
2019-04-22T07:32:17.147Z,4.97
2019-04-22T07:34:51.919Z,5.50
2019-04-22T07:37:28.253Z,5.40
2019-04-22T07:40:02.433Z,5.83
2019-04-22T07:42:24.555Z,6.27
2019-04-22T07:44:54.881Z,4.60
2019-04-22T07:50:07.175Z,6.93
2019-04-22T07:52:35.255Z,3.57
2019-04-22T07:55:04.312Z,4.33
2019-04-22T07:57:39.226Z,4.40
2019-04-22T08:00:16.082Z,3.80
2019-04-22T08:03:06.627Z,3.90
2019-04-22T08:05:22.798Z,4.13
2019-04-22T08:07:48.962Z,3.80
2019-04-22T08:12:55.016Z,4.60
2019-04-22T08:15:27.985Z,5.13
2019-04-22T08:18:06.876Z,4.83
2019-04-22T08:20:29.006Z,5.20
2019-04-22T08:23:07.349Z,4.77
2019-04-22T08:25:33.436Z,5.27
2019-04-22T08:28:06.883Z,5.27
2019-04-22T08:30:44.389Z,4.87
2019-04-22T08:33:16.146Z,5.17
2019-04-22T08:36:04.428Z,5.50
2019-04-22T08:38:15.828Z,4.83
2019-04-22T08:40:56.898Z,6.00
2019-04-22T08:43:36.491Z,6.00
2019-04-22T08:45:57.303Z,5.20
2019-04-22T08:48:32.965Z,6.13
2019-04-22T08:51:08.789Z,5.40
2019-04-22T08:53:53.689Z,4.97
2019-04-22T08:56:28.350Z,4.33
2019-04-22T08:58:50.202Z,4.77
2019-04-22T09:01:19.160Z,4.60
2019-04-22T09:03:53.365Z,4.80
2019-04-22T09:06:29.637Z,7.07
2019-04-22T09:08:54.181Z,6.13
2019-04-22T09:11:27.085Z,4.80
2019-04-22T09:13:55.825Z,5.80
2019-04-22T09:16:34.217Z,6.87
2019-04-22T09:19:02.694Z,5.43
2019-04-22T09:26:43.632Z,5.80
2019-04-22T09:29:13.731Z,5.90
2019-04-22T09:31:53.630Z,6.97
2019-04-22T09:34:23.411Z,6.60
2019-04-22T09:37:06.137Z,7.20
2019-04-22T09:42:18.816Z,7.70
2019-04-22T09:44:36.301Z,7.73
2019-04-22T09:47:07.355Z,7.37
2019-04-22T09:49:44.288Z,8.27
2019-04-22T09:52:10.296Z,8.90
2019-04-22T09:57:20.405Z,8.33
2019-04-22T09:59:50.781Z,9.93
2019-04-22T10:04:54.111Z,11.80
2019-04-22T10:07:27.006Z,11.17
2019-04-22T10:10:03.291Z,12.53
2019-04-22T10:12:31.966Z,12.37
2019-04-22T10:15:00.571Z,12.93
2019-04-22T10:17:32.457Z,13.40
2019-04-22T10:20:07.145Z,13.60
2019-04-22T10:22:46.413Z,14.80
2019-04-22T10:25:16.750Z,14.20
2019-04-22T10:27:49.425Z,15.07
2019-04-22T10:30:22.015Z,15.40
2019-04-22T10:32:47.606Z,15.37
2019-04-22T10:35:21.292Z,15.47
2019-04-22T10:37:50.260Z,16.53
2019-04-22T10:40:29.466Z,15.57
2019-04-22T10:43:01.166Z,15.47
2019-04-22T10:45:32.387Z,16.45
2019-04-22T10:48:08.132Z,16.17
2019-04-22T10:50:41.159Z,15.67
2019-04-22T10:53:17.602Z,16.13
2019-04-22T10:55:56.455Z,17.20
2019-04-22T10:58:28.853Z,17.03
2019-04-22T11:01:07.321Z,17.60
2019-04-22T11:03:46.177Z,15.03
2019-04-22T11:23:02.630Z,15.47
2019-04-22T11:25:36.201Z,14.93
2019-04-22T11:28:09.855Z,15.70
2019-04-22T11:30:42.745Z,14.70
2019-04-22T11:33:16.373Z,14.63
2019-04-22T11:35:48.073Z,14.13
2019-04-22T11:38:24.674Z,15.90
2019-04-22T11:40:58.168Z,16.23
2019-04-22T11:43:34.711Z,16.17
2019-04-22T11:46:13.453Z,16.67
2019-04-22T11:48:47.626Z,17.23
2019-04-22T11:51:20.022Z,16.60
2019-04-22T11:53:52.600Z,15.40
2019-04-22T11:56:25.140Z,14.87
2019-04-22T11:58:57.089Z,15.37
2019-04-22T12:01:28.752Z,13.73
2019-04-22T12:03:59.922Z,14.50
2019-04-22T12:06:33.628Z,12.93
2019-04-22T12:09:07.700Z,13.77
2019-04-22T12:11:38.517Z,13.57
2019-04-22T12:14:12.179Z,13.90
2019-04-22T12:16:43.470Z,13.33
2019-04-22T12:19:15.675Z,14.00
2019-04-22T12:21:46.837Z,12.23
2019-04-22T12:24:19.208Z,13.63
2019-04-22T12:26:50.641Z,12.90
2019-04-22T12:29:22.733Z,11.40
2019-04-22T12:31:53.995Z,11.73
2019-04-22T12:34:25.756Z,10.57
2019-04-22T12:36:56.428Z,11.03
2019-04-22T12:39:31.637Z,10.83
2019-04-22T12:42:02.785Z,15.30
2019-04-22T12:44:33.540Z,10.97
2019-04-22T12:47:05.709Z,9.90
2019-04-22T12:49:40.171Z,10.00
2019-04-22T12:52:07.354Z,10.17
2019-04-22T12:54:37.323Z,12.23
2019-04-22T12:57:08.445Z,9.87
2019-04-22T12:59:42.041Z,8.80
2019-04-22T13:02:15.383Z,9.13
2019-04-22T13:04:47.567Z,8.80
2019-04-22T13:07:18.134Z,8.23
2019-04-22T13:09:49.508Z,9.60
2019-04-22T13:12:22.489Z,7.37
2019-04-22T13:14:57.114Z,7.97
2019-04-22T13:17:34.009Z,6.83
2019-04-22T13:20:18.273Z,6.43
2019-04-22T13:22:48.970Z,8.00
2019-04-22T13:25:24.848Z,5.97
2019-04-22T13:27:55.295Z,6.90
2019-04-22T13:30:26.353Z,6.13
2019-04-22T13:32:58.643Z,4.90
2019-04-22T13:35:31.745Z,5.63
2019-04-22T13:38:04.950Z,6.20
2019-04-22T13:40:37.163Z,5.20
2019-04-22T13:43:09.134Z,5.70
2019-04-22T13:45:41.527Z,5.33
2019-04-22T13:48:33.499Z,5.40
2019-04-22T13:51:18.583Z,5.03
2019-04-22T13:56:15.384Z,5.70
2019-04-22T13:58:42.764Z,4.67
2019-04-22T14:01:02.616Z,4.40
2019-04-22T14:03:54.583Z,4.73
2019-04-22T14:06:36.556Z,4.50
2019-04-22T14:09:09.578Z,4.53
2019-04-22T14:11:49.738Z,5.00
2019-04-22T14:14:15.637Z,4.13
2019-04-22T14:16:47.258Z,5.87
2019-04-22T14:19:20.216Z,4.10
2019-04-22T14:21:51.589Z,4.13
2019-04-22T14:24:22.021Z,3.30
2019-04-22T14:27:08.796Z,4.03
2019-04-22T14:29:31.503Z,3.33
2019-04-22T14:32:11.151Z,4.40
2019-04-22T14:34:38.397Z,3.27
2019-04-22T14:37:09.948Z,3.30
2019-04-22T14:39:42.230Z,3.77
2019-04-22T14:42:36.430Z,3.00
2019-04-22T14:47:51.128Z,2.80
2019-04-22T14:50:35.138Z,3.30
2019-04-22T14:53:15.736Z,4.80
2019-04-22T14:55:30.732Z,4.60
2019-04-22T14:58:17.145Z,3.23
2019-04-22T15:01:01.216Z,4.57
2019-04-22T15:03:33.389Z,4.10
2019-04-22T15:06:12.676Z,2.60
2019-04-22T15:08:48.989Z,3.60
2019-04-22T15:11:23.156Z,4.10
2019-04-22T15:13:57.016Z,3.30
2019-04-22T15:16:48.779Z,4.00
2019-04-22T15:19:35.744Z,2.97
2019-04-22T15:22:12.875Z,3.40
2019-04-22T15:24:45.118Z,3.07
2019-04-22T15:27:18.339Z,3.70
2019-04-22T15:29:51.739Z,3.80
2019-04-22T15:32:25.274Z,3.50
2019-04-22T15:34:59.470Z,3.47
2019-04-22T15:37:33.196Z,3.47
2019-04-22T15:40:04.835Z,2.70
2019-04-22T15:42:40.173Z,2.90
2019-04-22T15:45:11.832Z,3.20
2019-04-22T15:47:41.918Z,3.17
2019-04-22T15:50:14.102Z,3.43
2019-04-22T15:52:50.040Z,3.70
2019-04-22T15:55:18.584Z,3.70
2019-04-22T15:57:49.841Z,3.20
2019-04-22T16:00:36.812Z,3.23
2019-04-22T16:02:55.228Z,3.30
2019-04-22T16:05:25.754Z,3.40
2019-04-22T16:07:59.143Z,5.80
2019-04-22T16:10:30.617Z,3.53
2019-04-22T16:13:13.175Z,4.70
2019-04-22T16:15:40.344Z,3.43
2019-04-22T16:18:14.597Z,3.27
2019-04-22T16:20:46.136Z,4.80
2019-04-22T16:23:29.706Z,3.80
2019-04-22T16:26:20.203Z,4.10
2019-04-22T16:28:55.426Z,5.33
2019-04-22T16:31:25.095Z,4.40
2019-04-22T16:33:56.759Z,4.07
2019-04-22T16:36:27.031Z,4.53
2019-04-22T16:38:57.613Z,4.03
2019-04-22T16:41:28.720Z,3.70
2019-04-22T16:44:00.664Z,4.50
2019-04-22T16:46:31.902Z,4.47
2019-04-22T16:49:03.437Z,3.70
2019-04-22T16:51:36.042Z,3.93
2019-04-22T16:54:08.374Z,4.30
2019-04-22T16:56:41.666Z,3.93
2019-04-22T16:59:12.892Z,4.03
2019-04-22T17:02:02.578Z,3.80
2019-04-22T17:04:46.955Z,5.10
2019-04-22T17:07:18.045Z,4.27
2019-04-22T17:09:50.059Z,5.07
2019-04-22T17:12:21.780Z,6.97
2019-04-22T17:14:58.587Z,4.60
2019-04-22T17:17:26.508Z,3.83
2019-04-22T17:19:57.664Z,4.27
2019-04-22T17:22:29.750Z,4.50
2019-04-22T17:25:00.301Z,4.80
2019-04-22T17:27:33.158Z,4.73
2019-04-22T17:30:04.264Z,4.87
2019-04-22T17:32:35.619Z,5.67
2019-04-22T17:35:08.332Z,5.63
2019-04-22T17:37:40.995Z,7.77
2019-04-22T17:40:29.882Z,5.83
2019-04-22T17:43:06.932Z,5.43
2019-04-22T17:45:58.478Z,5.27
2019-04-22T17:48:53.542Z,5.50
2019-04-22T17:51:30.213Z,5.80
2019-04-22T17:53:57.987Z,5.63
2019-04-22T17:56:32.515Z,5.97
2019-04-22T17:59:02.651Z,6.47
2019-04-22T18:01:38.285Z,7.53
2019-04-22T18:03:56.633Z,6.47
2019-04-22T18:06:49.045Z,6.63
2019-04-22T18:09:28.406Z,7.13
2019-04-22T18:11:50.933Z,5.73
2019-04-22T18:17:00.230Z,6.40
2019-04-22T18:19:29.471Z,6.43
2019-04-22T18:21:57.172Z,5.87
2019-04-22T18:24:26.438Z,7.90
2019-04-22T18:27:22.344Z,6.70
2019-04-22T18:29:37.590Z,6.13
2019-04-22T18:32:05.363Z,7.77
2019-04-22T18:34:39.864Z,6.93
2019-04-22T18:37:13.214Z,8.97
2019-04-22T18:39:55.704Z,8.23
2019-04-22T18:42:17.839Z,6.07
2019-04-22T18:45:08.175Z,6.30
2019-04-22T18:47:18.575Z,6.47
2019-04-22T18:49:56.502Z,6.43
2019-04-22T18:52:54.176Z,8.77
2019-04-22T18:55:33.913Z,8.40
2019-04-22T18:58:11.690Z,8.17
2019-04-22T19:00:31.725Z,7.37
2019-04-22T19:03:13.506Z,7.93
2019-04-22T19:06:10.151Z,7.93
2019-04-22T19:08:43.414Z,7.17
2019-04-22T19:11:21.674Z,7.80
2019-04-22T19:14:30.047Z,7.90
2019-04-22T19:16:39.937Z,8.90
2019-04-22T19:21:51.360Z,8.47
2019-04-22T19:24:19.667Z,8.93
2019-04-22T19:26:59.067Z,9.57
2019-04-22T19:29:31.613Z,16.03
2019-04-22T19:32:02.027Z,18.23
2019-04-22T19:34:41.867Z,11.13
2019-04-22T19:37:11.816Z,10.43
2019-04-22T19:39:40.946Z,9.53
2019-04-22T19:44:46.856Z,9.60
2019-04-22T19:50:03.951Z,10.93
2019-04-22T19:52:29.036Z,29.77
2019-04-22T19:55:05.860Z,34.50
2019-04-22T19:57:37.388Z,14.17
2019-04-22T20:00:05.127Z,11.73
2019-04-22T20:03:03.645Z,10.13
2019-04-22T20:05:47.924Z,11.20
2019-04-22T20:08:19.880Z,25.30
2019-04-22T20:10:51.165Z,14.07
2019-04-22T20:13:30.872Z,10.90
2019-04-22T20:15:55.273Z,10.10
2019-04-22T20:18:42.958Z,10.03
2019-04-22T20:21:10.784Z,9.30
2019-04-22T20:23:34.905Z,9.43
2019-04-22T20:26:07.338Z,9.63
2019-04-22T20:28:49.291Z,10.00
2019-04-22T20:31:18.899Z,9.40
2019-04-22T20:34:01.361Z,14.77
2019-04-22T20:36:44.943Z,28.80
2019-04-22T20:38:53.629Z,11.13
2019-04-22T20:41:30.286Z,9.43
2019-04-22T20:44:05.150Z,9.37
2019-04-22T20:46:33.009Z,8.73
2019-04-22T20:49:04.796Z,8.83
2019-04-22T20:51:50.253Z,9.07
2019-04-22T20:54:11.567Z,8.20
2019-04-22T20:56:50.429Z,8.13
2019-04-22T20:59:28.415Z,8.17
2019-04-22T21:02:01.985Z,8.73
2019-04-22T21:04:24.835Z,8.27
2019-04-22T21:07:02.136Z,7.50
2019-04-22T21:09:40.389Z,8.47
2019-04-22T21:12:12.504Z,7.23
2019-04-22T21:14:51.407Z,8.90
2019-04-22T21:17:17.411Z,8.53
2019-04-22T21:19:54.744Z,9.60
2019-04-22T21:22:27.395Z,9.63
2019-04-22T21:24:52.277Z,8.43
2019-04-22T21:27:34.375Z,8.03
2019-04-22T21:29:52.061Z,8.93
2019-04-22T21:32:34.498Z,8.50
2019-04-22T21:35:17.826Z,8.43
2019-04-22T21:37:44.731Z,8.70
2019-04-22T21:40:17.322Z,8.23
2019-04-22T21:42:48.914Z,8.13
2019-04-22T21:45:14.946Z,7.73
2019-04-22T21:47:57.151Z,8.20
2019-04-22T21:50:39.502Z,8.23
2019-04-22T21:52:59.460Z,8.27
2019-04-22T21:55:43.573Z,7.70
2019-04-22T21:58:07.610Z,7.97
2019-04-22T22:00:43.186Z,7.57
2019-04-22T22:03:13.113Z,8.17
2019-04-22T22:05:38.472Z,7.23
2019-04-22T22:08:11.374Z,7.43
2019-04-22T22:10:44.914Z,7.60
2019-04-22T22:13:15.613Z,7.17
2019-04-22T22:15:47.959Z,7.83
2019-04-22T22:18:12.296Z,7.27
2019-04-22T22:21:12.965Z,7.13
2019-04-22T22:25:53.439Z,7.80
2019-04-22T22:28:45.027Z,7.67
2019-04-22T22:31:08.820Z,7.17
2019-04-22T22:33:40.526Z,7.60
2019-04-22T22:36:00.978Z,7.57
2019-04-22T22:38:32.610Z,7.07
2019-04-22T22:40:50.082Z,7.40
2019-04-22T22:43:26.667Z,7.13
2019-04-22T22:46:05.863Z,6.73
2019-04-22T22:48:44.710Z,7.30
2019-04-22T22:51:15.049Z,7.03
2019-04-22T22:53:57.056Z,7.13
2019-04-22T22:56:25.406Z,7.07
2019-04-22T22:58:52.339Z,7.43
2019-04-22T23:01:23.352Z,7.17
2019-04-22T23:03:56.627Z,8.03
2019-04-22T23:06:34.011Z,7.30
2019-04-22T23:09:04.088Z,6.80
2019-04-22T23:11:54.208Z,7.70
2019-04-22T23:14:02.849Z,7.17
2019-04-22T23:16:27.337Z,7.03
2019-04-22T23:19:07.415Z,6.97
2019-04-22T23:21:45.345Z,7.00
2019-04-22T23:24:43.957Z,7.00
2019-04-22T23:27:20.510Z,6.70
2019-04-22T23:30:06.670Z,7.00
2019-04-22T23:32:41.222Z,7.13
2019-04-22T23:35:33.612Z,7.23
2019-04-22T23:38:13.779Z,6.17
2019-04-22T23:40:47.645Z,7.03
2019-04-22T23:43:27.287Z,6.57
2019-04-22T23:45:56.407Z,6.23
2019-04-22T23:48:23.555Z,6.40
2019-04-22T23:51:07.164Z,5.83
2019-04-22T23:53:57.238Z,5.83
2019-04-22T23:56:04.326Z,5.77
